Tiempo atmosférico en la estación meteorológica de Soba, Alto Miera, Cantabria (695 m.)



Fecha
DESCASC
Temp. máxima en grados centígrados (hora)
DESCASC
Temp. mínima en grados centígrados (hora)
DESCASC
Temp. media en grados centígrados
DESCASC
Racha de viento máxima en m/sg (hora)
DESCASC
Velocidad máxima media en intervalos de 10 minutos(hora)
DESCASC
Precipitaciones diarias en mm
DESCASC
Precipitaciones de 00:00 a 06:00 en mm
DESCASC
Precipitaciones de 06:00 a 12:00 en mm
DESCASC
Precipitaciones de 12:00 a 18:00 en mm
DESCASC
Precipitaciones de 18:00 a 24:00 en mm
DESCASC
16-04-2019 18.1 (18:00) 5.1 (08:00) 11.6 10.28 (23:59) 4.72 (21:20) 0.2 0.2 0 0 0
15-04-2019 20.4 (14:40) 7.5 (23:10) 13.9 16.94 (12:00) 8.61 (09:00) 21.2 0 0 10.2 11
14-04-2019 19 (18:30) 10.1 (00:00) 14.6 6.94 (23:50) 3.61 (23:50) 0 0 0 0 0
13-04-2019 19 (15:50) 4.8 (00:00) 11.9 6.11 (17:20) 4.17 (17:20) 0 0 0 0 0
12-04-2019 14 (16:30) 2.6 (00:00) 8.3 5.56 (13:20) 3.33 (13:10) 0.2 0.2 0 0 0
11-04-2019 6.2 (18:20) 4.5 (00:00) 5.3 8.89 (15:20) 5 (12:00) 20.4 5.6 6.2 4.6 4
10-04-2019 11.1 (12:10) 3.9 (00:00) 7.5 7.22 (23:50) 4.44 (17:20) 8 3.6 0 0.6 3.8
09-04-2019 11.6 (13:40) 4.3 (00:00) 8 8.33 (17:00) 4.17 (17:00) 9 0 0 7.8 1.2
08-04-2019 11.1 (15:00) 6.8 (00:00) 9 9.72 (00:10) 5.56 (00:10) 6 0.2 5.4 0.4 0
07-04-2019 12.6 (16:50) 3 (00:00) 7.8 11.11 (02:10) 4.72 (23:59) 4.8 3 1.2 0 0.6
06-04-2019 11.3 (16:00) 1.6 (00:00) 6.5 11.39 (13:40) 5.83 (13:40) 10.4 0.6 0 0.6 9.2
05-04-2019 10.5 (19:20) 4.7 (00:00) 7.6 17.78 (03:50) 9.17 (04:00) 1 0 0 0 1
04-04-2019 9.7 (17:00) 0 (00:00) 4.8 15 (23:50) 6.11 (23:50) 13.8 0.2 8.8 4.6 0.2
03-04-2019 4.7 (00:50) 0 (00:00) 2.3 13.61 (15:50) 5.56 (05:50) 19.8 2.8 7.8 6.2 3
02-04-2019 11.2 (14:30) 4.6 (00:00) 7.9 6.94 (14:40) 3.89 (14:40) 9.4 0 0 0 9.4
01-04-2019 12.9 (17:00) 6.4 (00:00) 9.6 10 (03:50) 5.56 (03:50) 0 0 0 0 0
31-03-2019 17.1 (17:50) 7.9 (00:00) 12.5 9.72 (15:10) 4.44 (20:40) 0 0 0 0 0
30-03-2019 18.6 (13:50) 8.3 (00:00) 13.5 14.72 (02:40) 6.94 (01:50) 0 0 0 0 0
29-03-2019 18.3 (15:50) 3.6 (00:00) 10.9 11.67 (23:50) 6.11 (23:40) 0 0 0 0 0
28-03-2019 13.3 (15:40) 1.4 (00:00) 7.4 5.83 (15:20) 3.61 (12:30) 0 0 0 0 0
27-03-2019 12.9 (14:40) 2 (00:00) 7.4 13.61 (02:20) 4.72 (02:10) 0 0 0 0 0
26-03-2019 12.3 (16:00) 3.7 (00:00) 8 17.22 (16:40) 5.83 (11:20) 0 0 0 0 0
25-03-2019 10.7 (15:00) 3.6 (00:00) 7.1 9.44 (14:00) 5.56 (15:20) 0 0 0 0 0
24-03-2019 16.9 (13:40) 7.1 (00:00) 12 8.33 (13:10) 5 (13:50) 0 0 0 0 0
23-03-2019 18.6 (16:30) 7.2 (00:00) 12.9 6.94 (21:00) 4.17 (15:20) 0 0 0 0 0
22-03-2019 16.6 (14:50) 3.9 (00:00) 10.3 7.5 (01:30) 4.17 (16:20) 0 0 0 0 0
21-03-2019 11.9 (15:00) 2.1 (00:00) 7 8.06 (00:20) 3.61 (13:40) 0 0 0 0 0
20-03-2019 10.5 (15:40) 2.5 (00:00) 6.5 8.33 (23:50) 3.89 (23:40) 1.8 1.8 0 0 0
19-03-2019 6.5 (15:30) 3.5 (00:00) 5 8.89 (02:40) 4.72 (10:00) 29 10.6 10.4 4.8 3.2

Gráficas

Temp. máximas Temp. mínimas Temp. medias Precipitaciones Rachas de viento máximas Velocidades máximas media en intervalos de 10 minutos

Datos horarios

Fecha y hora oficial Temperatura (ºC) Velocidad del viento (km/h) Dirección del viento Racha (km/h) Dirección de racha Precipitación (mm) Presión (hPa) Tendencia (hPa) Humedad (%)
2019-04-17 23:00:00 14.6 23 Sudeste 46 Este 1.8 -- -- 74
2019-04-17 22:00:00 16 19 Sudeste 37 Este 0.2 -- -- 62
2019-04-17 21:00:00 16.7 15 Sudeste 40 Sudeste 0 -- -- 59
2019-04-17 20:00:00 17.5 20 Sudeste 44 Sudeste 0 -- -- 52
2019-04-17 19:00:00 18.1 18 Sudeste 43 Sur 0 -- -- 48
2019-04-17 18:00:00 19.1 10 Sur 41 Sudeste 0 -- -- 47
2019-04-17 17:00:00 19.7 19 Sudeste 37 Sudeste 0 -- -- 47
2019-04-17 16:00:00 19.6 18 Sur 62 Sudeste 0 -- -- 42
2019-04-17 15:00:00 19.9 17 Sur 49 Sudeste 0 -- -- 32
2019-04-17 14:00:00 19.2 24 Sudeste 48 Sudeste 0 -- -- 34
2019-04-17 13:00:00 16.8 27 Sudeste 49 Sur 0 -- -- 42
2019-04-17 12:00:00 17.8 26 Sur 59 Sudeste 0 -- -- 41
2019-04-17 11:00:00 16.7 23 Sur 53 Sur 0 -- -- 46
2019-04-17 10:00:00 15.9 21 Sudeste 46 Sudoeste 0 -- -- 45
2019-04-17 09:00:00 15.1 23 Sur 39 Sur 0 -- -- 49
2019-04-17 08:00:00 14.6 23 Sudeste 65 Sur 0 -- -- 51
2019-04-17 07:00:00 14.7 23 Sudeste 57 Sur 0 -- -- 52
2019-04-17 06:00:00 15.1 27 Sur 66 Sur 0 -- -- 50
2019-04-17 05:00:00 15.1 12 Sudoeste 46 Sudoeste 0 -- -- 47
2019-04-17 04:00:00 15.1 14 Sur 54 Sudoeste 0 -- -- 48
2019-04-17 03:00:00 15.3 19 Sur 68 Sudeste 0 -- -- 49
2019-04-17 02:00:00 15.9 21 Sudeste 59 Este 0 -- -- 48
2019-04-17 01:00:00 16.6 15 Sudeste 49 Este 0 -- -- 45
2019-04-17 00:00:00 16.2 15 Sur 37 Sudoeste 0 -- -- 46
2019-04-16 23:00:00 14 7 Noroeste 22 Sur 0 -- -- 60
2019-04-16 22:00:00 15.1 9 Sur 37 Sudeste 0 -- -- 58
2019-04-16 21:00:00 15.8 13 Sudeste 29 Sudeste 0 -- -- 55
2019-04-16 20:00:00 16.9 14 Sudeste 29 Sudeste 0 -- -- 43
2019-04-16 19:00:00 17.8 9 Sur 24 Sudeste 0 -- -- 35
2019-04-16 18:00:00 18.1 10 Sudeste 23 Sudeste 0 -- -- 41
2019-04-16 17:00:00 17.2 13 Sudeste 31 Sudeste 0 -- -- 45
2019-04-16 16:00:00 17.1 13 Sudeste 27 Sudeste 0 -- -- 49
2019-04-16 15:00:00 16.4 10 Sudeste 23 Sudeste 0 -- -- 48
2019-04-16 14:00:00 14.6 10 Sudeste 22 Sur 0 -- -- 56
2019-04-16 13:00:00 13.8 10 Este 25 Este 0 -- -- 60
2019-04-16 12:00:00 12.6 10 Sudeste 24 Este 0 -- -- 63
2019-04-16 11:00:00 11 4 Noroeste 10 Noroeste 0 -- -- 72
2019-04-16 10:00:00 8.9 2 Norte 8 Este 0 -- -- 73
2019-04-16 09:00:00 5.8 2 Sudeste 6 Nordeste 0 -- -- 79
2019-04-16 08:00:00 5.1 2 Este 12 Sudeste 0 -- -- 81
2019-04-16 07:00:00 5.7 7 Sudeste 14 Sudeste 0 -- -- 72
2019-04-16 06:00:00 5.9 6 Sudeste 13 Sudeste 0 -- -- 81
2019-04-16 05:00:00 6.3 6 Sudeste 12 Sudeste 0 -- -- 87
2019-04-16 04:00:00 6.9 4 Sudeste 7 Sudeste 0 -- -- 89
2019-04-16 03:00:00 7.7 3 Noroeste 7 Sudeste 0 -- -- 88
2019-04-16 02:00:00 7.4 3 Este 6 Norte 0 -- -- 92
2019-04-16 01:00:00 7.5 2 Este 11 Norte 0.2 -- -- 92
2019-04-16 00:00:00 7.6 8 Noroeste 20 Noroeste 2.4 -- -- 95
2019-04-15 23:00:00 7.6 0 Calma 21 Noroeste 2.4 -- -- 98
2019-04-15 22:00:00 8 3 Noroeste 24 Noroeste 2 -- -- 99
2019-04-15 21:00:00 8.6 11 Norte 26 Noroeste 2.4 -- -- 99
2019-04-15 20:00:00 8.8 4 Noroeste 8 Norte 1.4 -- -- 99
2019-04-15 19:00:00 8.9 8 Noroeste 23 Noroeste 0.4 -- -- 97
2019-04-15 18:00:00 9.3 21 Noroeste 39 Noroeste 2.6 -- -- 93
2019-04-15 17:00:00 11.6 10 Norte 19 Noroeste 1.8 -- -- 98
2019-04-15 16:00:00 11.6 5 Noroeste 31 Noroeste 5.8 -- -- 98
2019-04-15 15:00:00 15 24 Noroeste 39 Norte 0 -- -- 82
2019-04-15 14:00:00 19.7 22 Sudeste 49 Sudeste 0 -- -- 54
2019-04-15 13:00:00 18.1 15 Sudeste 42 Sudeste 0 -- -- 58
2019-04-15 12:00:00 18.5 26 Sudeste 61 Sudeste 0 -- -- 54
2019-04-15 11:00:00 17.5 17 Sudeste 44 Sudeste 0 -- -- 58
2019-04-15 10:00:00 16.9 17 Sudeste 43 Sudeste 0 -- -- 59
2019-04-15 09:00:00 17.5 31 Sudeste 49 Sudeste 0 -- -- 56
2019-04-15 08:00:00 17.7 14 Sur 60 Sudeste 0 -- -- 55
2019-04-15 07:00:00 18.1 23 Sudeste 43 Sudeste 0 -- -- 55
2019-04-15 06:00:00 17.8 13 Sur 38 Sur 0 -- -- 57
2019-04-15 05:00:00 17.6 11 Sudeste 49 Sur 0 -- -- 58
2019-04-15 04:00:00 16.9 15 Sudeste 45 Sudeste 0 -- -- 59
2019-04-15 03:00:00 17 13 Sur 37 Sur 0 -- -- 60
2019-04-15 02:00:00 17 8 Sur 38 Sudeste 0 -- -- 60
2019-04-15 01:00:00 16.4 10 Sudeste 28 Sudeste 0 -- -- 62
2019-04-15 00:00:00 16.4 9 Sudeste 25 Sudeste 0 -- -- 65
2019-04-14 23:00:00 12.3 0 Calma 8 Sur 0 -- -- 89
2019-04-14 22:00:00 12.1 3 Sudeste 8 Sur 0 -- -- 91
2019-04-14 21:00:00 13.9 0 Calma 6 Nordeste 0 -- -- 83
2019-04-14 20:00:00 16.4 2 Norte 12 Norte 0 -- -- 75
2019-04-14 19:00:00 17.7 6 Noroeste 11 Noroeste 0 -- -- 70
2019-04-14 18:00:00 18.2 5 Noroeste 10 Noroeste 0 -- -- 66
2019-04-14 17:00:00 17.4 6 Noroeste 17 Noroeste 0 -- -- 67
2019-04-14 16:00:00 17 12 Noroeste 18 Norte 0 -- -- 68
2019-04-14 15:00:00 17.7 7 Noroeste 16 Noroeste 0 -- -- 64
2019-04-14 14:00:00 16.5 4 Norte 18 Noroeste 0 -- -- 67
2019-04-14 13:00:00 16.8 6 Noroeste 14 Noroeste 0 -- -- 64
2019-04-14 12:00:00 14.8 6 Norte 19 Norte 0 -- -- 69
2019-04-14 11:00:00 14.8 4 Sudoeste 12 Noroeste 0 -- -- 67
2019-04-14 10:00:00 13.1 3 Sur 6 Sudeste 0 -- -- 67
2019-04-14 09:00:00 10.9 3 Sudeste 8 Sudeste 0 -- -- 70
2019-04-14 08:00:00 10.1 0 Calma 9 Sur 0 -- -- 72
2019-04-14 07:00:00 10.7 5 Sudeste 11 Sudeste 0 -- -- 62
2019-04-14 06:00:00 10.8 3 Sudeste 7 Sur 0 -- -- 62
2019-04-14 05:00:00 10.7 4 Sudeste 10 Sudeste 0 -- -- 60
2019-04-14 04:00:00 11.4 4 Sudeste 10 Sudeste 0 -- -- 61
2019-04-14 03:00:00 12.1 8 Sudeste 12 Sudeste 0 -- -- 55
2019-04-14 02:00:00 12.4 5 Sudeste 10 Sudeste 0 -- -- 51
2019-04-14 01:00:00 11.8 4 Sudeste 6 Sur 0 -- -- 56
2019-04-14 00:00:00 11.8 4 Sudeste 10 Sudeste 0 -- -- 59
2019-04-13 23:00:00 12.3 4 Sudeste 11 Sudeste 0 -- -- 57
2019-04-13 22:00:00 12.2 4 Sudeste 9 Sur 0 -- -- 64
2019-04-13 21:00:00 12.2 5 Sudeste 10 Sudeste 0 -- -- 61
2019-04-13 20:00:00 15.7 0 Calma 12 Noroeste 0 -- -- 48
2019-04-13 19:00:00 17.4 7 Noroeste 19 Noroeste 0 -- -- 43
2019-04-13 18:00:00 18 11 Noroeste 22 Noroeste 0 -- -- 53
2019-04-13 17:00:00 18.5 11 Noroeste 21 Noroeste 0 -- -- 54
2019-04-13 16:00:00 18.8 13 Noroeste 22 Noroeste 0 -- -- 47
2019-04-13 15:00:00 18.5 8 Noroeste 18 Norte 0 -- -- 38
2019-04-13 14:00:00 17.9 7 Noroeste 21 Noroeste 0 -- -- 39
2019-04-13 13:00:00 17.3 8 Noroeste 16 Noroeste 0 -- -- 36
2019-04-13 12:00:00 16.5 6 Noroeste 13 Noroeste 0 -- -- 33
2019-04-13 11:00:00 15.2 2 Sudeste 6 Nordeste 0 -- -- 30
2019-04-13 10:00:00 11.1 3 Este 11 Sur 0 -- -- 38
2019-04-13 09:00:00 8.4 6 Sur 15 Sur 0 -- -- 32
2019-04-13 08:00:00 7.2 4 Sudeste 12 Sur 0 -- -- 31
2019-04-13 07:00:00 6.5 2 Sudeste 12 Sudeste 0 -- -- 31
2019-04-13 06:00:00 7.7 6 Sudeste 14 Sudeste 0 -- -- 26
2019-04-13 05:00:00 7.2 7 Sudeste 15 Sur 0 -- -- 29
2019-04-13 04:00:00 6.6 6 Sudeste 13 Sudeste 0 -- -- 30
2019-04-13 03:00:00 5.7 4 Sudeste 10 Sudeste 0 -- -- 35
2019-04-13 02:00:00 5.1 2 Sudeste 9 Sudeste 0 -- -- 38
2019-04-13 01:00:00 5.1 4 Sudeste 9 Sur 0 -- -- 39
2019-04-13 00:00:00 5.1 2 Sudeste 8 Sur 0 -- -- 41
2019-04-12 23:00:00 5.3 2 Sudeste 8 Sudeste 0 -- -- 50
2019-04-12 22:00:00 6.3 5 Sudeste 9 Sur 0 -- -- 70
2019-04-12 21:00:00 7.6 2 Sudeste 4 Sur 0 -- -- 87
2019-04-12 20:00:00 10.6 0 Calma 7 Noroeste 0 -- -- 78
2019-04-12 19:00:00 12.8 5 Noroeste 12 Noroeste 0 -- -- 71
2019-04-12 18:00:00 11.9 7 Noroeste 17 Noroeste 0 -- -- 75
2019-04-12 17:00:00 12.2 11 Noroeste 18 Noroeste 0 -- -- 75
2019-04-12 16:00:00 13.8 8 Noroeste 18 Noroeste 0 -- -- 63
2019-04-12 15:00:00 13.4 11 Noroeste 19 Noroeste 0 -- -- 68
2019-04-12 14:00:00 12.2 10 Noroeste 20 Noroeste 0 -- -- 65
2019-04-12 13:00:00 10.8 12 Noroeste 19 Noroeste 0 -- -- 69
2019-04-12 12:00:00 9.5 9 Noroeste 13 Norte 0 -- -- 73
2019-04-12 11:00:00 8.7 2 Nordeste 5 Sur 0 -- -- 68
2019-04-12 10:00:00 5.3 0 Calma 10 Sudeste 0 -- -- 88
2019-04-12 09:00:00 2.8 3 Sudeste 10 Sudeste 0 -- -- 90
2019-04-12 08:00:00 3 0 Calma 10 Sudeste 0 -- -- 88
2019-04-12 07:00:00 3.3 4 Sudeste 9 Este 0 -- -- 89
2019-04-12 06:00:00 3.8 4 Este 8 Este 0 -- -- 90
2019-04-12 05:00:00 3.6 3 Sudeste 9 Sudeste 0 -- -- 93
2019-04-12 04:00:00 3.7 5 Sudeste 8 Sudeste 0 -- -- 91
2019-04-12 03:00:00 4.4 3 Sudeste 4 Este 0 -- -- 98
2019-04-12 02:00:00 5.1 0 Calma 3 Este 0 -- -- 100
2019-04-12 01:00:00 5.2 0 Calma 9 Noroeste 0.2 -- -- 100
2019-04-12 00:00:00 5.3 5 Noroeste 13 Noroeste 0.4 -- -- 100
2019-04-11 23:00:00 5.3 3 Noroeste 9 Noroeste 0.4 -- -- 100
2019-04-11 22:00:00 5.3 0 Calma 9 Noroeste 0 -- -- 100
2019-04-11 21:00:00 5.3 6 Noroeste 15 Noroeste 0.4 -- -- 100
2019-04-11 20:00:00 5.9 5 Noroeste 12 Noroeste 1 -- -- 100
2019-04-11 19:00:00 6.1 6 Noroeste 18 Noroeste 1.8 -- -- 98
2019-04-11 18:00:00 6.1 6 Norte 20 Norte 1 -- -- 98
2019-04-11 17:00:00 5.8 10 Noroeste 26 Noroeste 0.6 -- -- 97
2019-04-11 16:00:00 5.9 9 Noroeste 32 Noroeste 1.2 -- -- 97
2019-04-11 15:00:00 5.8 10 Norte 21 Noroeste 1.4 -- -- 96
2019-04-11 14:00:00 5.9 14 Noroeste 31 Noroeste 0.2 -- -- 91
2019-04-11 13:00:00 5.7 7 Norte 26 Noroeste 0.2 -- -- 92
2019-04-11 12:00:00 5.2 18 Norte 28 Noroeste 0.2 -- -- 92
2019-04-11 11:00:00 5.1 16 Noroeste 27 Noroeste 1.8 -- -- 95
2019-04-11 10:00:00 4.5 4 Norte 31 Norte 3 -- -- 95
2019-04-11 09:00:00 5.1 15 Noroeste 31 Norte 0.8 -- -- 96
2019-04-11 08:00:00 5.2 13 Noroeste 22 Noroeste 0 -- -- 97
2019-04-11 07:00:00 4.9 7 Norte 13 Noroeste 0.4 -- -- 98
2019-04-11 06:00:00 4.9 9 Noroeste 17 Noroeste 0 -- -- 98
2019-04-11 05:00:00 5 6 Norte 15 Norte 0 -- -- 97
2019-04-11 04:00:00 5 8 Noroeste 17 Norte 1 -- -- 96
2019-04-11 03:00:00 5.1 10 Norte 21 Noroeste 2.4 -- -- 97
2019-04-11 02:00:00 5.1 7 Norte 17 Norte 2.2 -- -- 95
2019-04-11 01:00:00 5.5 2 Norte 15 Noroeste 0 -- -- 93
2019-04-11 00:00:00 5.8 10 Norte 26 Noroeste 1.4 -- -- 95
2019-04-10 23:00:00 5.7 6 Norte 19 Norte 2.2 -- -- 93
2019-04-10 22:00:00 5.9 7 Norte 22 Noroeste 0 -- -- 93
2019-04-10 21:00:00 6.2 11 Norte 18 Noroeste 0.2 -- -- 93
2019-04-10 20:00:00 6.8 9 Norte 20 Noroeste 0 -- -- 88
2019-04-10 19:00:00 7.1 11 Noroeste 25 Noroeste 0 -- -- 88
2019-04-10 18:00:00 8.2 10 Noroeste 23 Noroeste 0 -- -- 82
2019-04-10 17:00:00 8.4 11 Noroeste 22 Noroeste 0 -- -- 84
2019-04-10 16:00:00 8.5 12 Noroeste 19 Noroeste 0 -- -- 88
2019-04-10 15:00:00 7.8 3 Sudoeste 23 Noroeste 0.6 -- -- 88
2019-04-10 14:00:00 9.5 12 Noroeste 21 Noroeste 0 -- -- 86
2019-04-10 13:00:00 9.7 8 Noroeste 15 Noroeste 0 -- -- 76
2019-04-10 12:00:00 10.4 6 Nordeste 15 Este 0 -- -- 68
2019-04-10 11:00:00 8.9 4 Sudeste 6 Sur 0 -- -- 67
2019-04-10 10:00:00 5.5 4 Sudeste 7 Sudeste 0 -- -- 82
2019-04-10 09:00:00 4.9 3 Sudeste 8 Sudeste 0 -- -- 86
2019-04-10 08:00:00 4.4 5 Sudeste 11 Sudeste 0 -- -- 84
2019-04-10 07:00:00 5 3 Sudeste 9 Sudeste 0 -- -- 85
2019-04-10 06:00:00 5.1 6 Sudeste 10 Sudeste 0 -- -- 85
2019-04-10 05:00:00 4.8 7 Sudeste 14 Sudeste 0 -- -- 84
2019-04-10 04:00:00 3.9 6 Sudeste 16 Sur 2 -- -- 90
2019-04-10 03:00:00 5 2 Sudeste 15 Noroeste 1.4 -- -- 89
2019-04-10 02:00:00 5.8 2 Sudeste 8 Sudeste 0 -- -- 83
2019-04-10 01:00:00 5.8 3 Sudeste 7 Sudeste 0.2 -- -- 80
2019-04-10 00:00:00 5.3 2 Sur 8 Sudeste 0 -- -- 81
2019-04-09 23:00:00 5 5 Sudeste 8 Sudeste 0 -- -- 78
2019-04-09 22:00:00 4.6 3 Sudeste 5 Sudeste 0 -- -- 87
2019-04-09 21:00:00 5.7 0 Calma 6 Noroeste 0 -- -- 87
2019-04-09 20:00:00 6.5 0 Calma 9 Este 0 -- -- 87
2019-04-09 19:00:00 5 6 Sudeste 17 Sudeste 1.2 -- -- 85
2019-04-09 18:00:00 4.7 8 Sudeste 12 Sudeste 5.8 -- -- 88
2019-04-09 17:00:00 6.3 15 Noroeste 30 Noroeste 1 -- -- 87
2019-04-09 16:00:00 7.3 4 Sudeste 13 Noroeste 0.4 -- -- 82
2019-04-09 15:00:00 7.5 5 Norte 27 Noroeste 0.6 -- -- 79
2019-04-09 14:00:00 11.5 10 Norte 23 Oeste 0 -- -- 57
2019-04-09 13:00:00 10.7 10 Sudeste 26 Sudeste 0 -- -- 61
2019-04-09 12:00:00 10.1 13 Sur 25 Sudoeste 0 -- -- 59
2019-04-09 11:00:00 9 7 Sudeste 25 Sur 0 -- -- 65
2019-04-09 10:00:00 7.9 5 Sur 17 Sudeste 0 -- -- 67
2019-04-09 09:00:00 6.9 3 Sur 13 Sur 0 -- -- 68
2019-04-09 08:00:00 6.9 4 Sudeste 17 Sur 0 -- -- 66
2019-04-09 07:00:00 7.1 10 Sur 20 Sur 0 -- -- 63
2019-04-09 06:00:00 7.5 10 Sur 18 Sur 0 -- -- 61
2019-04-09 05:00:00 7.3 5 Sudeste 27 Sudeste 0 -- -- 59
2019-04-09 04:00:00 8.1 8 Sudeste 20 Sudeste 0 -- -- 56
2019-04-09 03:00:00 7.8 7 Sudeste 16 Sudeste 0 -- -- 63
2019-04-09 02:00:00 5.3 3 Sudeste 9 Sur 0 -- -- 80
2019-04-09 01:00:00 4.9 2 Sudeste 6 Sur 0 -- -- 91
2019-04-09 00:00:00 6.8 0 Calma 13 Sudeste 0 -- -- 79
2019-04-08 23:00:00 7.2 8 Sudeste 15 Nordeste 0 -- -- 84
2019-04-08 22:00:00 7.3 0 Calma 10 Sudoeste 0 -- -- 84
2019-04-08 21:00:00 8.4 4 Este 14 Sudeste 0 -- -- 74
2019-04-08 20:00:00 8.1 9 Sudeste 33 Este 0 -- -- 80
2019-04-08 19:00:00 8.2 17 Este 29 Este 0 -- -- 83
2019-04-08 18:00:00 9.6 6 Sudeste 23 Este 0 -- -- 80
2019-04-08 17:00:00 10.4 9 Noroeste 21 Norte 0 -- -- 74
2019-04-08 16:00:00 9.9 9 Noroeste 17 Norte 0 -- -- 83
2019-04-08 15:00:00 11.1 7 Noroeste 15 Noroeste 0 -- -- 75
2019-04-08 14:00:00 8.9 3 Sudoeste 8 Noroeste 0 -- -- 80
2019-04-08 13:00:00 7.8 3 Noroeste 11 Noroeste 0.4 -- -- 92
2019-04-08 12:00:00 7.1 0 Calma 11 Norte 0.8 -- -- 92
2019-04-08 11:00:00 7 4 Noroeste 9 Norte 2.6 -- -- 96
2019-04-08 10:00:00 6.9 6 Norte 10 Noroeste 1.4 -- -- 96
2019-04-08 09:00:00 6.8 0 Calma 19 Nordeste 0.2 -- -- 95
2019-04-08 08:00:00 7.6 15 Noroeste 26 Noroeste 0.2 -- -- 88
2019-04-08 07:00:00 8.9 3 Sudeste 16 Sudeste 0.2 -- -- 79
2019-04-08 06:00:00 9.5 3 Este 13 Sur 0 -- -- 73
2019-04-08 05:00:00 9.2 5 Sudeste 22 Sur 0 -- -- 72
2019-04-08 04:00:00 9 13 Sur 23 Sur 0.2 -- -- 71
2019-04-08 03:00:00 8.8 11 Sur 23 Sur 0 -- -- 71
2019-04-08 02:00:00 8.3 12 Sur 26 Sudeste 0 -- -- 69
2019-04-08 01:00:00 8.8 8 Sur 35 Sudeste 0 -- -- 64
2019-04-08 00:00:00 8.9 17 Sudeste 31 Sudeste 0 -- -- 64
2019-04-07 23:00:00 7.5 4 Sur 22 Sudoeste 0.6 -- -- 76
2019-04-07 22:00:00 8.2 10 Sur 30 Sudeste 0 -- -- 70
2019-04-07 21:00:00 10 11 Sudoeste 33 Sudoeste 0 -- -- 54
2019-04-07 20:00:00 10.8 14 Sudeste 31 Sur 0 -- -- 44
2019-04-07 19:00:00 11.6 14 Sudeste 32 Sudeste 0 -- -- 45
2019-04-07 18:00:00 11.7 9 Sudeste 29 Sudeste 0 -- -- 47
2019-04-07 17:00:00 12.3 10 Sudeste 26 Sudeste 0 -- -- 51
2019-04-07 16:00:00 11.6 11 Sudeste 24 Sur 0 -- -- 58
2019-04-07 15:00:00 10.7 6 Sudeste 16 Sur 0 -- -- 56
2019-04-07 14:00:00 9.5 5 Sudeste 15 Norte 0 -- -- 68
2019-04-07 13:00:00 8 4 Norte 14 Noroeste 0 -- -- 70
2019-04-07 12:00:00 6.6 0 Calma 18 Noroeste 0 -- -- 76
2019-04-07 11:00:00 5.4 4 Sudoeste 14 Norte 0 -- -- 77
2019-04-07 10:00:00 4.2 2 Este 11 Norte 0.2 -- -- 84
2019-04-07 09:00:00 3.6 9 Norte 19 Norte 0.2 -- -- 90
2019-04-07 08:00:00 3.4 6 Norte 17 Norte 0.8 -- -- 91
2019-04-07 07:00:00 3.6 6 Norte 17 Nordeste 0 -- -- 90
2019-04-07 06:00:00 3 2 Sur 13 Nordeste 0.6 -- -- 93
2019-04-07 05:00:00 3.2 7 Norte 15 Norte 0.8 -- -- 91
2019-04-07 04:00:00 3.1 6 Nordeste 19 Norte 1.6 -- -- 92
2019-04-07 03:00:00 4.1 6 Norte 40 Norte 0 -- -- 85
2019-04-07 02:00:00 4.1 11 Norte 35 Norte 0 -- -- 85
2019-04-07 01:00:00 4.3 10 Norte 20 Norte 0 -- -- 85
2019-04-07 00:00:00 4.3 5 Norte 13 Norte 0 -- -- 87
2019-04-06 23:00:00 3.5 0 Calma 9 Sudeste 0 -- -- 92
2019-04-06 22:00:00 1.9 5 Sudeste 9 Sudeste 2 -- -- 96
2019-04-06 21:00:00 2.7 3 Sudeste 12 Noroeste 4.2 -- -- 92
2019-04-06 20:00:00 4.5 5 Sur 12 Sur 0.6 -- -- 88
2019-04-06 19:00:00 4.1 8 Sur 17 Sur 2.4 -- -- 87
2019-04-06 18:00:00 6 12 Noroeste 29 Oeste 0.6 -- -- 75
2019-04-06 17:00:00 10.8 7 Sur 24 Sur 0 -- -- 53
2019-04-06 16:00:00 11.3 10 Noroeste 24 Sur 0 -- -- 57
2019-04-06 15:00:00 9.7 12 Sudeste 37 Sudeste 0 -- -- 55
2019-04-06 14:00:00 9.2 13 Sudeste 41 Sur 0 -- -- 58
2019-04-06 13:00:00 7.9 18 Sudeste 38 Sur 0 -- -- 65
2019-04-06 12:00:00 7.2 15 Sur 34 Sudeste 0 -- -- 62
2019-04-06 11:00:00 6.7 13 Sudeste 33 Sur 0 -- -- 63
2019-04-06 10:00:00 5.8 15 Sur 32 Sudeste 0 -- -- 63
2019-04-06 09:00:00 4.4 6 Sudoeste 32 Sudeste 0 -- -- 69
2019-04-06 08:00:00 4.4 6 Sudeste 14 Sur 0 -- -- 64
2019-04-06 07:00:00 4 8 Sur 25 Sur 0 -- -- 68
2019-04-06 06:00:00 4.5 7 Sur 31 Sudeste 0 -- -- 67
2019-04-06 05:00:00 4 6 Sur 18 Sur 0 -- -- 71
2019-04-06 04:00:00 3.2 5 Este 12 Sur 0 -- -- 82
2019-04-06 03:00:00 3.6 4 Sudeste 10 Sudeste 0 -- -- 85
2019-04-06 02:00:00 3.7 3 Nordeste 9 Sudeste 0 -- -- 89
2019-04-06 01:00:00 4.5 4 Sur 21 Noroeste 0.6 -- -- 92
2019-04-06 00:00:00 4.9 0 Calma 17 Noroeste 0.8 -- -- 94
2019-04-05 23:00:00 5.2 4 Norte 9 Norte 0.2 -- -- 91
2019-04-05 22:00:00 4.7 5 Norte 14 Norte 0 -- -- 72
2019-04-05 21:00:00 6.6 7 Sudeste 15 Norte 0 -- -- 60
2019-04-05 20:00:00 8.9 3 Norte 21 Sur 0 -- -- 50
2019-04-05 19:00:00 10 6 Sur 18 Sudeste 0 -- -- 48
2019-04-05 18:00:00 9.3 6 Sur 25 Sudeste 0 -- -- 50
2019-04-05 17:00:00 9.4 9 Sur 25 Sudeste 0 -- -- 48
2019-04-05 16:00:00 9.3 17 Sudeste 27 Sudeste 0 -- -- 50
2019-04-05 15:00:00 9.9 7 Sur 38 Sudeste 0 -- -- 49
2019-04-05 14:00:00 9.9 8 Sudeste 38 Sur 0 -- -- 60
2019-04-05 13:00:00 7.7 12 Sudeste 35 Sudeste 0 -- -- 68
2019-04-05 12:00:00 7.4 12 Sur 28 Sudeste 0 -- -- 66
2019-04-05 11:00:00 8.5 8 Sur 34 Sudeste 0 -- -- 67
2019-04-05 10:00:00 6.9 7 Sur 35 Sur 0 -- -- 70
2019-04-05 09:00:00 5.7 8 Sudeste 36 Sudeste 0 -- -- 75
2019-04-05 08:00:00 5.5 14 Sudeste 29 Este 0 -- -- 75
2019-04-05 07:00:00 5.5 8 Sur 53 Sudeste 0 -- -- 74
2019-04-05 06:00:00 6 31 Sudeste 57 Sudeste 0 -- -- 70
2019-04-05 05:00:00 6 30 Sudeste 63 Sur 0 -- -- 70
2019-04-05 04:00:00 6.2 33 Sudeste 64 Sudeste 0 -- -- 69
2019-04-05 03:00:00 5.6 14 Sur 44 Este 0 -- -- 72
2019-04-05 02:00:00 6 16 Sudeste 40 Sudeste 0 -- -- 71
2019-04-05 01:00:00 6.2 18 Sudeste 54 Sudeste 0 -- -- 69
2019-04-05 00:00:00 6.2 20 Sudeste 54 Sudeste 0 -- -- 69
2019-04-04 23:00:00 5.4 14 Sudeste 45 Sudeste 0 -- -- 73
2019-04-04 22:00:00 5.6 17 Sur 49 Sudeste 0.2 -- -- 70
2019-04-04 21:00:00 7.2 14 Sur 28 Sur 0 -- -- 54
2019-04-04 20:00:00 7.9 10 Sudeste 39 Sudeste 0 -- -- 52
2019-04-04 19:00:00 8.6 18 Sudeste 49 Sudeste 0 -- -- 46
2019-04-04 18:00:00 9.2 10 Sudeste 31 Sudeste 0 -- -- 44
2019-04-04 17:00:00 9.7 10 Sur 40 Sudeste 0 -- -- 42
2019-04-04 16:00:00 9.4 12 Sudeste 36 Sur 0 -- -- 43
2019-04-04 15:00:00 9.4 6 Este 28 Sudeste 0 -- -- 45
2019-04-04 14:00:00 7.3 13 Sudeste 28 Sur 1 -- -- 47
2019-04-04 13:00:00 6.1 10 Sudeste 20 Sudeste 3.6 -- -- 49
2019-04-04 12:00:00 4.9 8 Sudeste 15 Sudeste 4.4 -- -- 60
2019-04-04 11:00:00 3.4 3 Nordeste 8 Norte 2.8 -- -- 73
2019-04-04 10:00:00 2.5 0 Calma 6 Sudeste 1.4 -- -- 83
2019-04-04 09:00:00 1.2 0 Calma -- -- 0.2 -- -- 87
2019-04-04 08:00:00 0.6 0 Calma -- -- 0 -- -- 94
2019-04-04 07:00:00 0.3 0 Calma -- -- 0 -- -- 96
2019-04-04 06:00:00 0.3 0 Calma -- -- 0 -- -- 95
2019-04-04 05:00:00 0.4 0 Calma -- -- 0.2 -- -- 95
2019-04-04 04:00:00 0.1 0 Calma -- -- 0 -- -- 97
2019-04-04 03:00:00 0.3 0 Calma -- -- 0 -- -- 94
2019-04-04 02:00:00 0.2 0 Calma -- -- 0 -- -- 97
2019-04-04 01:00:00 0.2 0 Calma -- -- 0 -- -- 99
2019-04-04 00:00:00 0 0 Calma -- -- 0 -- -- 100
2019-04-03 23:00:00 0.1 0 Calma 18 Norte 0.2 -- -- 99
2019-04-03 22:00:00 0.1 0 Calma 33 Noroeste 0 -- -- 99
2019-04-03 21:00:00 0.8 19 Norte 41 Norte 0.6 -- -- 92
2019-04-03 20:00:00 0.7 6 Norte 22 Norte 1 -- -- 97
2019-04-03 19:00:00 0.8 14 Norte 35 Norte 1.2 -- -- 96
2019-04-03 18:00:00 0.6 0 Calma 17 Norte 1.4 -- -- 98
2019-04-03 17:00:00 0.1 9 Noroeste 26 Noroeste 0.8 -- -- 99
2019-04-03 16:00:00 0.6 14 Norte 49 Norte 0.4 -- -- 96
2019-04-03 15:00:00 1.2 16 Norte 38 Norte 2.2 -- -- 94
2019-04-03 14:00:00 0.9 3 Sudoeste 27 Norte 0.8 -- -- 96
2019-04-03 13:00:00 2 17 Norte 33 Noroeste 0.6 -- -- 90
2019-04-03 12:00:00 2.5 11 Norte 28 Norte 1.4 -- -- 96
2019-04-03 11:00:00 2.3 8 Norte 31 Norte 1.4 -- -- 94
2019-04-03 10:00:00 1.4 10 Norte 19 Norte 2.4 -- -- 97
2019-04-03 09:00:00 2 4 Norte 28 Noroeste 1.6 -- -- 95
2019-04-03 08:00:00 2.4 16 Norte 41 Noroeste 0.8 -- -- 96
2019-04-03 07:00:00 3.2 11 Noroeste 31 Noroeste 0.2 -- -- 94
2019-04-03 06:00:00 3.3 18 Norte 39 Noroeste 0.2 -- -- 95
2019-04-03 05:00:00 3.9 17 Norte 33 Noroeste 0 -- -- 95
2019-04-03 04:00:00 4.2 9 Norte 33 Norte 0.4 -- -- 91
2019-04-03 03:00:00 4.4 4 Nordeste 18 Norte 0.2 -- -- 88
2019-04-03 02:00:00 4.1 3 Este 25 Norte 1.2 -- -- 94
2019-04-03 01:00:00 4.7 2 Nordeste 10 Norte 0.8 -- -- 97
2019-04-03 00:00:00 4.6 12 Norte 23 Norte 2.4 -- -- 98
2019-04-02 23:00:00 5.2 6 Norte 17 Norte 2.4 -- -- 98
2019-04-02 22:00:00 5.7 12 Noroeste 24 Norte 1.4 -- -- 98
2019-04-02 21:00:00 6 3 Noroeste 13 Noroeste 1.2 -- -- 98
2019-04-02 20:00:00 6.3 2 Noroeste 13 Noroeste 1.4 -- -- 97
2019-04-02 19:00:00 6.8 6 Norte 20 Noroeste 0.6 -- -- 94
2019-04-02 18:00:00 7.5 10 Norte 22 Norte 0 -- -- 87
2019-04-02 17:00:00 7.6 9 Norte 24 Noroeste 0 -- -- 86
2019-04-02 16:00:00 8 11 Norte 21 Noroeste 0 -- -- 90
2019-04-02 15:00:00 9.4 12 Norte 25 Noroeste 0 -- -- 82
2019-04-02 14:00:00 9.5 7 Noroeste 12 Noroeste 0 -- -- 78
2019-04-02 13:00:00 7.7 4 Noroeste 19 Noroeste 0 -- -- 92
2019-04-02 12:00:00 8.7 6 Norte 12 Noroeste 0 -- -- 83
2019-04-02 11:00:00 7.6 4 Norte 9 Norte 0 -- -- 92
2019-04-02 10:00:00 6.4 3 Sudeste 7 Norte 0 -- -- 88
2019-04-02 09:00:00 5.3 3 Norte 11 Sur 0 -- -- 84
2019-04-02 08:00:00 6 8 Sudeste 13 Sudeste 0 -- -- 81
2019-04-02 07:00:00 5.8 4 Sudeste 13 Sudeste 0 -- -- 82
2019-04-02 06:00:00 6 6 Sudeste 12 Sudeste 0 -- -- 78
2019-04-02 05:00:00 6.4 6 Sudeste 12 Sudeste 0 -- -- 80
2019-04-02 04:00:00 6.4 8 Sudeste 13 Sudeste 0 -- -- 81
2019-04-02 03:00:00 6.8 5 Sudeste 13 Sudeste 0 -- -- 80
2019-04-02 02:00:00 6.6 6 Sudeste 13 Sudeste 0 -- -- 81
2019-04-02 01:00:00 6.2 6 Sudeste 10 Sudeste 0 -- -- 84
2019-04-02 00:00:00 6.4 6 Sudeste 11 Sudeste 0 -- -- 88
2019-04-01 23:00:00 6.8 0 Calma 10 Sudeste 0 -- -- 88
2019-04-01 22:00:00 8.7 0 Calma 11 Noroeste 0 -- -- 88
2019-04-01 21:00:00 9.5 5 Norte 15 Norte 0 -- -- 86
2019-04-01 20:00:00 10.1 10 Noroeste 18 Noroeste 0 -- -- 83
2019-04-01 19:00:00 11.9 12 Noroeste 18 Noroeste 0 -- -- 73
2019-04-01 18:00:00 11.7 5 Noroeste 18 Noroeste 0 -- -- 76
2019-04-01 17:00:00 12.9 14 Noroeste 22 Noroeste 0 -- -- 71
2019-04-01 16:00:00 12.4 3 Nordeste 8 Norte 0 -- -- 65
2019-04-01 15:00:00 11.2 4 Noroeste 12 Noroeste 0 -- -- 74
2019-04-01 14:00:00 11.2 8 Noroeste 18 Noroeste 0 -- -- 71
2019-04-01 13:00:00 12.2 8 Norte 15 Noroeste 0 -- -- 64
2019-04-01 12:00:00 11.6 6 Noroeste 13 Noroeste 0 -- -- 62
2019-04-01 11:00:00 10.2 3 Norte 7 Noroeste 0 -- -- 64
2019-04-01 10:00:00 9.4 0 Calma 5 Sur 0 -- -- 70
2019-04-01 09:00:00 7.8 0 Calma 6 Este 0 -- -- 77
2019-04-01 08:00:00 8 0 Calma 5 Sudeste 0 -- -- 72
2019-04-01 07:00:00 9.2 2 Norte 20 Este 0 -- -- 65
2019-04-01 06:00:00 10.4 11 Sudeste 25 Sudeste 0 -- -- 59
2019-04-01 05:00:00 9.7 13 Sur 32 Sur 0 -- -- 61
2019-04-01 04:00:00 9.9 19 Sur 36 Sur 0 -- -- 57
2019-04-01 03:00:00 10 15 Sur 28 Sur 0 -- -- 53
2019-04-01 02:00:00 10.4 12 Sur 23 Sur 0 -- -- 47
2019-04-01 01:00:00 8.1 3 Este 6 Nordeste 0 -- -- 56
2019-04-01 00:00:00 8.4 3 Sudeste 6 Sur 0 -- -- 52
2019-03-31 23:00:00 8.8 0 Calma 14 Sudeste 0 -- -- 49
2019-03-31 22:00:00 11.4 8 Sudeste 27 Sudeste 0 -- -- 40
2019-03-31 21:00:00 12.2 11 Sudeste 28 Sudeste 0 -- -- 41
2019-03-31 20:00:00 13.5 10 Este 27 Sudeste 0 -- -- 40
2019-03-31 19:00:00 16.2 9 Sudeste 26 Sudeste 0 -- -- 42
2019-03-31 18:00:00 17.1 9 Noroeste 27 Noroeste 0 -- -- 44
2019-03-31 17:00:00 16 8 Sur 29 Este 0 -- -- 37
2019-03-31 16:00:00 15.4 11 Sur 35 Sur 0 -- -- 35
2019-03-31 15:00:00 16.2 15 Sur 30 Sur 0 -- -- 39
2019-03-31 14:00:00 16.1 12 Sudoeste 32 Sudoeste 0 -- -- 38
2019-03-31 13:00:00 16.2 6 Este 26 Sudeste 0 -- -- 38
2019-03-31 12:00:00 15.3 13 Sur 28 Sudoeste 0 -- -- 36
2019-03-31 11:00:00 14.3 4 Norte 15 Sudeste 0 -- -- 44
2019-03-31 10:00:00 10.2 5 Sudeste 10 Sudeste 0 -- -- 47
2019-03-31 09:00:00 8.6 0 Calma 6 Este 0 -- -- 51
2019-03-31 08:00:00 9 3 Nordeste 9 Norte 0 -- -- 50
2019-03-31 07:00:00 8.8 2 Este 14 Noroeste 0 -- -- 51
2019-03-31 06:00:00 8.8 2 Este 9 Nordeste 0 -- -- 53
2019-03-31 05:00:00 8.9 0 Calma 5 Nordeste 0 -- -- 55
2019-03-31 03:00:00 8.4 4 Este 8 Este 0 -- -- 61
2019-03-31 01:00:00 8.9 3 Sudeste 6 Norte 0 -- -- 60
2019-03-31 00:00:00 8.6 2 Nordeste 8 Sur 0 -- -- 70
2019-03-30 23:00:00 8.6 0 Calma 5 Sudeste 0 -- -- 78
2019-03-30 22:00:00 9.1 0 Calma 6 Sudeste 0 -- -- 82
2019-03-30 21:00:00 9.9 3 Sudeste 6 Sudeste 0 -- -- 77
2019-03-30 20:00:00 10.7 4 Sudeste 6 Sudeste 0 -- -- 76
2019-03-30 19:00:00 12.6 0 Calma 6 Este 0 -- -- 64
2019-03-30 18:00:00 13.1 4 Sudeste 26 Oeste 0 -- -- 56
2019-03-30 17:00:00 14 10 Sudoeste 21 Sudeste 0 -- -- 50
2019-03-30 16:00:00 15.2 4 Oeste 16 Este 0 -- -- 58
2019-03-30 15:00:00 15.9 5 Este 21 Noroeste 0 -- -- 46
2019-03-30 14:00:00 18.2 9 Noroeste 21 Sudeste 0 -- -- 33
2019-03-30 13:00:00 17.5 8 Sudeste 22 Sur 0 -- -- 32
2019-03-30 12:00:00 17.1 8 Sudeste 21 Sur 0 -- -- 33
2019-03-30 11:00:00 15.6 13 Sur 23 Sudeste 0 -- -- 37
2019-03-30 10:00:00 14.2 12 Sudeste 22 Sur 0 -- -- 40
2019-03-30 09:00:00 11.9 9 Sudeste 17 Sudeste 0 -- -- 42
2019-03-30 08:00:00 11.3 10 Sur 21 Sudeste 0 -- -- 41
2019-03-30 07:00:00 11.6 14 Sudeste 26 Sudeste 0 -- -- 41
2019-03-30 06:00:00 10.7 4 Sudeste 25 Sudeste 0 -- -- 44
2019-03-30 05:00:00 11.7 12 Sudeste 28 Sur 0 -- -- 41
2019-03-30 04:00:00 11.9 20 Sudeste 36 Sudeste 0 -- -- 42
2019-03-30 03:00:00 12.2 13 Sudeste 53 Sur 0 -- -- 40
2019-03-30 02:00:00 13.1 21 Sur 52 Sur 0 -- -- 35
2019-03-30 01:00:00 13.8 23 Sudeste 42 Sudeste 0 -- -- 33
2019-03-30 00:00:00 13.9 18 Sudeste 42 Sur 0 -- -- 35
2019-03-29 23:00:00 14.2 11 Sudeste 40 Sudeste 0 -- -- 37
2019-03-29 22:00:00 9.4 6 Este 18 Sudoeste 0 -- -- 64
2019-03-29 21:00:00 8.1 3 Norte 9 Norte 0 -- -- 89
2019-03-29 20:00:00 9.4 3 Sudeste 7 Sudeste 0 -- -- 83
2019-03-29 19:00:00 12.5 2 Sudeste 12 Norte 0 -- -- 73
2019-03-29 18:00:00 16.4 5 Noroeste 19 Noroeste 0 -- -- 63
2019-03-29 17:00:00 17.2 13 Noroeste 20 Noroeste 0 -- -- 58
2019-03-29 16:00:00 18 15 Noroeste 22 Norte 0 -- -- 53
2019-03-29 15:00:00 17.8 17 Noroeste 26 Noroeste 0 -- -- 43
2019-03-29 14:00:00 17.5 3 Noroeste 21 Sudoeste 0 -- -- 34
2019-03-29 13:00:00 16.1 4 Sur 20 Sur 0 -- -- 39
2019-03-29 12:00:00 15 9 Norte 18 Noroeste 0 -- -- 43
2019-03-29 11:00:00 13.1 4 Oeste 12 Noroeste 0 -- -- 47
2019-03-29 10:00:00 11.2 0 Calma 6 Sudeste 0 -- -- 53
2019-03-29 09:00:00 6.3 3 Este 7 Este 0 -- -- 66
2019-03-29 08:00:00 4.9 3 Sudeste 8 Sudeste 0 -- -- 72
2019-03-29 07:00:00 4.8 4 Sudeste 10 Sudeste 0 -- -- 72
2019-03-29 06:00:00 4.6 4 Sudeste 14 Sudeste 0 -- -- 75
2019-03-29 05:00:00 4.7 2 Sudeste 7 Este 0 -- -- 77
2019-03-29 04:00:00 5.1 3 Este 7 Sudeste 0 -- -- 78
2019-03-29 03:00:00 4.4 5 Sudeste 9 Este 0 -- -- 83
2019-03-29 02:00:00 3.9 2 Sudeste 7 Sur 0 -- -- 89
2019-03-29 01:00:00 4 3 Sudeste 8 Sudeste 0 -- -- 90
2019-03-29 00:00:00 4.3 0 Calma 6 Sudeste 0 -- -- 91
2019-03-28 23:00:00 4.5 3 Sudeste 9 Sudeste 0 -- -- 89
2019-03-28 22:00:00 4.6 2 Sur 9 Sudeste 0 -- -- 88
2019-03-28 21:00:00 5.3 0 Calma 5 Sudeste 0 -- -- 90
2019-03-28 20:00:00 6.8 0 Calma 5 Sudeste 0 -- -- 87
2019-03-28 19:00:00 8.7 2 Sur 10 Noroeste 0 -- -- 81
2019-03-28 18:00:00 10.2 6 Noroeste 18 Noroeste 0 -- -- 75
2019-03-28 17:00:00 12.9 10 Noroeste 20 Noroeste 0 -- -- 66
2019-03-28 16:00:00 13.1 12 Noroeste 21 Noroeste 0 -- -- 63
2019-03-28 15:00:00 13.2 9 Noroeste 19 Noroeste 0 -- -- 63
2019-03-28 14:00:00 12.3 11 Noroeste 21 Noroeste 0 -- -- 64
2019-03-28 13:00:00 11.5 12 Noroeste 20 Noroeste 0 -- -- 66
2019-03-28 12:00:00 10.5 10 Noroeste 18 Noroeste 0 -- -- 71
2019-03-28 11:00:00 8.7 8 Noroeste 13 Noroeste 0 -- -- 77
2019-03-28 10:00:00 7.3 3 Noroeste 6 Noroeste 0 -- -- 83
2019-03-28 09:00:00 3 3 Sudeste 7 Sur 0 -- -- 93
2019-03-28 08:00:00 2.6 4 Sudeste 10 Sudeste 0 -- -- 92
2019-03-28 07:00:00 2 3 Sur 12 Sudeste 0 -- -- 88
2019-03-28 06:00:00 2.4 3 Sudeste 8 Sudeste 0 -- -- 89
2019-03-28 05:00:00 1.7 2 Sudeste 6 Sudeste 0 -- -- 92
2019-03-28 04:00:00 1.8 3 Sudeste 6 Sudeste 0 -- -- 90
2019-03-28 03:00:00 1.7 2 Sudeste 6 Sur 0 -- -- 89
2019-03-28 02:00:00 1.6 0 Calma 6 Sudeste 0 -- -- 87
2019-03-28 01:00:00 1.6 2 Sudeste 5 Sur 0 -- -- 90
2019-03-28 00:00:00 2 2 Sudeste 10 Sudeste 0 -- -- 89
2019-03-27 23:00:00 2.4 3 Sudeste 6 Sudeste 0 -- -- 91
2019-03-27 22:00:00 2.6 0 Calma 7 Sudeste 0 -- -- 89
2019-03-27 21:00:00 3.4 2 Sudeste 8 Sudeste 0 -- -- 88
2019-03-27 20:00:00 4.5 2 Sudeste 9 Noroeste 0 -- -- 85
2019-03-27 19:00:00 6.8 6 Norte 14 Noroeste 0 -- -- 79
2019-03-27 18:00:00 10.2 10 Noroeste 21 Noroeste 0 -- -- 66
2019-03-27 17:00:00 11.5 13 Noroeste 22 Noroeste 0 -- -- 61
2019-03-27 16:00:00 12.3 13 Noroeste 22 Noroeste 0 -- -- 59
2019-03-27 15:00:00 12.9 12 Noroeste 22 Noroeste 0 -- -- 60
2019-03-27 14:00:00 12.5 14 Noroeste 22 Noroeste 0 -- -- 57
2019-03-27 13:00:00 11.7 13 Noroeste 23 Noroeste 0 -- -- 54
2019-03-27 12:00:00 10.7 11 Noroeste 22 Noroeste 0 -- -- 50
2019-03-27 11:00:00 9 9 Noroeste 14 Noroeste 0 -- -- 57
2019-03-27 10:00:00 7.8 3 Norte 6 Noroeste 0 -- -- 64
2019-03-27 09:00:00 3.6 0 Calma 6 Nordeste 0 -- -- 65
2019-03-27 08:00:00 3.4 0 Calma 7 Este 0 -- -- 63
2019-03-27 07:00:00 3.9 3 Este 23 Sudeste 0 -- -- 63
2019-03-27 06:00:00 6 5 Oeste 24 Sur 0 -- -- 59
2019-03-27 05:00:00 6.7 8 Sudeste 37 Este 0 -- -- 53
2019-03-27 04:00:00 6.7 14 Sudeste 40 Sudeste 0 -- -- 55
2019-03-27 03:00:00 6.9 14 Sudeste 49 Sudeste 0 -- -- 57
2019-03-27 02:00:00 6.5 17 Sudeste 46 Sudoeste 0 -- -- 64
2019-03-27 01:00:00 6.4 15 Sur 33 Sudeste 0 -- -- 66
2019-03-27 00:00:00 5.8 10 Sudoeste 34 Sur 0 -- -- 69
2019-03-26 23:00:00 6 14 Sur 26 Sur 0 -- -- 60
2019-03-26 22:00:00 4 3 Norte 25 Sur 0 -- -- 68
2019-03-26 21:00:00 6.7 2 Oeste 26 Nordeste 0 -- -- 44
2019-03-26 20:00:00 7 7 Sudeste 27 Sur 0 -- -- 41
2019-03-26 19:00:00 8 16 Sudoeste 42 Sur 0 -- -- 33
2019-03-26 18:00:00 11 9 Oeste 29 Sudoeste 0 -- -- 32
2019-03-26 17:00:00 11.9 10 Sudoeste 62 Sudeste 0 -- -- 20
2019-03-26 16:00:00 12.3 10 Oeste 46 Sudoeste 0 -- -- 24
2019-03-26 15:00:00 11.9 17 Sur 47 Sur 0 -- -- 27
2019-03-26 14:00:00 11.5 11 Sur 42 Sur 0 -- -- 29
2019-03-26 13:00:00 11.4 14 Oeste 42 Oeste 0 -- -- 26
2019-03-26 12:00:00 10.5 16 Oeste 42 Noroeste 0 -- -- 31
2019-03-26 11:00:00 8.7 15 Noroeste 57 Norte 0 -- -- 37
2019-03-26 10:00:00 7.1 12 Noroeste 31 Oeste 0 -- -- 44
2019-03-26 09:00:00 4.6 4 Sur 31 Sur 0 -- -- 56
2019-03-26 08:00:00 4 10 Sur 31 Sur 0 -- -- 69
2019-03-26 07:00:00 4.1 10 Sur 35 Sudeste 0 -- -- 73
2019-03-26 06:00:00 4.8 5 Oeste 35 Oeste 0 -- -- 72
2019-03-26 05:00:00 5.1 15 Noroeste 31 Norte 0 -- -- 73
2019-03-26 04:00:00 5.6 15 Noroeste 33 Noroeste 0 -- -- 74
2019-03-26 03:00:00 5.9 15 Noroeste 33 Noroeste 0 -- -- 83
2019-03-26 02:00:00 5.6 14 Noroeste 29 Noroeste 0 -- -- 86
2019-03-26 01:00:00 4.7 13 Noroeste 19 Noroeste 0 -- -- 87
2019-03-26 00:00:00 4.4 2 Oeste 23 Noroeste 0 -- -- 85
2019-03-25 23:00:00 4.4 10 Noroeste 24 Norte 0 -- -- 79
2019-03-25 22:00:00 3.7 6 Noroeste 14 Noroeste 0 -- -- 88
2019-03-25 21:00:00 4.3 5 Norte 18 Norte 0 -- -- 80
2019-03-25 20:00:00 5.1 11 Norte 18 Norte 0 -- -- 84
2019-03-25 19:00:00 6.2 9 Noroeste 24 Noroeste 0 -- -- 76
2019-03-25 18:00:00 8.8 14 Noroeste 27 Noroeste 0 -- -- 67
2019-03-25 17:00:00 10.4 14 Noroeste 29 Norte 0 -- -- 63
2019-03-25 16:00:00 10 10 Noroeste 32 Noroeste 0 -- -- 60
2019-03-25 15:00:00 10.7 12 Noroeste 30 Norte 0 -- -- 63
2019-03-25 14:00:00 9.8 15 Noroeste 34 Noroeste 0 -- -- 61
2019-03-25 13:00:00 8.7 12 Noroeste 27 Noroeste 0 -- -- 69
2019-03-25 12:00:00 7.9 12 Noroeste 24 Noroeste 0 -- -- 76
2019-03-25 11:00:00 7.7 10 Noroeste 18 Noroeste 0 -- -- 73
2019-03-25 10:00:00 7.2 6 Norte 16 Norte 0 -- -- 82
2019-03-25 09:00:00 6.4 8 Norte 18 Norte 0 -- -- 90
2019-03-25 08:00:00 6.1 0 Calma 6 Norte 0 -- -- 96
2019-03-25 07:00:00 6.1 2 Norte 9 Norte 0 -- -- 95
2019-03-25 06:00:00 6.1 3 Norte 11 Noroeste 0 -- -- 98
2019-03-25 05:00:00 6.3 5 Noroeste 13 Noroeste 0 -- -- 98
2019-03-25 04:00:00 7 5 Noroeste 10 Noroeste 0 -- -- 95
2019-03-25 03:00:00 7.1 2 Sudeste 5 Sudeste 0 -- -- 88
2019-03-25 02:00:00 6.7 2 Sudeste 5 Sudeste 0 -- -- 90
2019-03-25 01:00:00 6.8 3 Sudeste 9 Sur 0 -- -- 94
2019-03-25 00:00:00 7.1 0 Calma 3 Sudeste 0 -- -- 95
2019-03-24 23:00:00 7.7 0 Calma 10 Noroeste 0 -- -- 96
2019-03-24 22:00:00 8.4 4 Noroeste 7 Noroeste 0 -- -- 97
2019-03-24 21:00:00 9.1 0 Calma 10 Norte 0 -- -- 96
2019-03-24 20:00:00 9.6 7 Norte 14 Noroeste 0 -- -- 95
2019-03-24 19:00:00 10.8 8 Noroeste 19 Noroeste 0 -- -- 93
2019-03-24 18:00:00 12.7 9 Noroeste 17 Noroeste 0 -- -- 86
2019-03-24 17:00:00 14.6 13 Noroeste 23 Noroeste 0 -- -- 77
2019-03-24 16:00:00 16.6 13 Noroeste 20 Noroeste 0 -- -- 72
2019-03-24 15:00:00 16.3 13 Noroeste 22 Noroeste 0 -- -- 71
2019-03-24 14:00:00 16.3 14 Noroeste 30 Noroeste 0 -- -- 64
2019-03-24 13:00:00 16.2 17 Noroeste 28 Noroeste 0 -- -- 58
2019-03-24 12:00:00 15 12 Noroeste 20 Noroeste 0 -- -- 60
2019-03-24 11:00:00 14.1 12 Noroeste 20 Noroeste 0 -- -- 60
2019-03-24 10:00:00 13.1 3 Norte 8 Noroeste 0 -- -- 56
2019-03-24 09:00:00 10.7 2 Sudeste 13 Sur 0 -- -- 59
2019-03-24 08:00:00 9.6 6 Sudeste 13 Sudeste 0 -- -- 61
2019-03-24 07:00:00 9.3 8 Sudeste 14 Sur 0 -- -- 59
2019-03-24 06:00:00 8.6 4 Sudeste 10 Sudeste 0 -- -- 63
2019-03-24 05:00:00 8.7 4 Sudeste 10 Sudeste 0 -- -- 62
2019-03-24 04:00:00 8.9 3 Sudeste 9 Sudeste 0 -- -- 61
2019-03-24 03:00:00 8.7 3 Sudeste 8 Este 0 -- -- 64
2019-03-24 02:00:00 8.6 0 Calma 6 Sudeste 0 -- -- 65
2019-03-24 01:00:00 8.5 0 Calma 7 Sur 0 -- -- 71
2019-03-24 00:00:00 8.7 0 Calma 9 Sur 0 -- -- 71
2019-03-23 23:00:00 9.8 4 Norte 13 Noroeste 0 -- -- 67
2019-03-23 22:00:00 10.9 3 Noroeste 19 Sudeste 0 -- -- 62
2019-03-23 21:00:00 14.7 13 Sudeste 25 Este 0 -- -- 43
2019-03-23 20:00:00 11.5 2 Sudeste 6 Nordeste 0 -- -- 62
2019-03-23 19:00:00 14.3 4 Nordeste 13 Sur 0 -- -- 53
2019-03-23 18:00:00 17.8 5 Noroeste 17 Noroeste 0 -- -- 48
2019-03-23 17:00:00 18.3 9 Noroeste 21 Noroeste 0 -- -- 43
2019-03-23 16:00:00 18.3 10 Noroeste 24 Noroeste 0 -- -- 43
2019-03-23 15:00:00 17.7 13 Noroeste 21 Noroeste 0 -- -- 47
2019-03-23 14:00:00 18.2 12 Noroeste 20 Noroeste 0 -- -- 44
2019-03-23 13:00:00 17.6 11 Noroeste 18 Noroeste 0 -- -- 44
2019-03-23 12:00:00 16.9 6 Noroeste 10 Noroeste 0 -- -- 43
2019-03-23 11:00:00 15 6 Noroeste 9 Noroeste 0 -- -- 44
2019-03-23 10:00:00 13.3 0 Calma 6 Sudeste 0 -- -- 54
2019-03-23 09:00:00 8.7 4 Sudeste 8 Este 0 -- -- 59
2019-03-23 08:00:00 7.8 2 Sudeste 7 Sudeste 0 -- -- 61
2019-03-23 07:00:00 7.4 3 Sudeste 10 Sudeste 0 -- -- 62
2019-03-23 06:00:00 7.3 3 Sudeste 9 Este 0 -- -- 62
2019-03-23 05:00:00 7.5 4 Sudeste 15 Sudeste 0 -- -- 61
2019-03-23 04:00:00 7.9 7 Sudeste 13 Sudeste 0 -- -- 60
2019-03-23 03:00:00 7.5 3 Sudeste 10 Sudeste 0 -- -- 63
2019-03-23 02:00:00 7.9 0 Calma 8 Nordeste 0 -- -- 63
2019-03-23 01:00:00 7.4 4 Este 8 Sudeste 0 -- -- 67
2019-03-23 00:00:00 7.4 3 Sudeste 6 Sudeste 0 -- -- 68
2019-03-22 23:00:00 7.3 2 Sudeste 6 Este 0 -- -- 68
2019-03-22 22:00:00 7.3 0 Calma 7 Sudeste 0 -- -- 71
2019-03-22 21:00:00 8 4 Sudeste 11 Sudeste 0 -- -- 69
2019-03-22 20:00:00 8.9 8 Sudeste 13 Sudeste 0 -- -- 66
2019-03-22 19:00:00 10.7 5 Sudeste 10 Oeste 0 -- -- 61
2019-03-22 18:00:00 14.5 6 Noroeste 18 Noroeste 0 -- -- 49
2019-03-22 17:00:00 15.1 13 Noroeste 22 Noroeste 0 -- -- 46
2019-03-22 16:00:00 16.1 14 Noroeste 22 Noroeste 0 -- -- 46
2019-03-22 15:00:00 16.6 10 Noroeste 17 Noroeste 0 -- -- 33
2019-03-22 14:00:00 16 9 Noroeste 16 Noroeste 0 -- -- 36
2019-03-22 13:00:00 15.1 13 Norte 22 Norte 0 -- -- 33
2019-03-22 12:00:00 15.2 5 Sur 12 Sudeste 0 -- -- 32
2019-03-22 11:00:00 13.9 5 Sudeste 16 Este 0 -- -- 34
2019-03-22 10:00:00 12.2 8 Este 26 Sudeste 0 -- -- 33
2019-03-22 09:00:00 9.3 8 Sudeste 18 Sudeste 0 -- -- 41
2019-03-22 08:00:00 8.2 4 Este 14 Este 0 -- -- 45
2019-03-22 07:00:00 8.6 4 Este 15 Sudeste 0 -- -- 44
2019-03-22 06:00:00 7.9 4 Este 15 Sudeste 0 -- -- 45
2019-03-22 05:00:00 8.9 7 Sur 18 Sudeste 0 -- -- 40
2019-03-22 04:00:00 9.8 10 Sudeste 26 Sudeste 0 -- -- 41
2019-03-22 03:00:00 10 10 Sudeste 23 Sur 0 -- -- 42
2019-03-22 02:00:00 6.3 6 Noroeste 27 Sur 0 -- -- 71
2019-03-22 01:00:00 4.1 3 Norte 9 Sudeste 0 -- -- 85
2019-03-22 00:00:00 3.9 0 Calma 9 Sur 0 -- -- 86
2019-03-21 23:00:00 3.8 2 Sudeste 8 Sur 0 -- -- 86
2019-03-21 22:00:00 3.8 2 Sudeste 10 Sudeste 0 -- -- 89
2019-03-21 21:00:00 4.2 3 Sudeste 11 Sur 0 -- -- 89
2019-03-21 20:00:00 4.9 3 Sudeste 9 Sudeste 0 -- -- 89
2019-03-21 19:00:00 7.3 4 Norte 11 Noroeste 0 -- -- 81
2019-03-21 18:00:00 8.7 7 Noroeste 18 Noroeste 0 -- -- 75
2019-03-21 17:00:00 9.3 10 Noroeste 20 Noroeste 0 -- -- 72
2019-03-21 16:00:00 11.9 8 Noroeste 23 Noroeste 0 -- -- 59
2019-03-21 15:00:00 11.9 6 Oeste 19 Sudeste 0 -- -- 54
2019-03-21 14:00:00 10.8 8 Sudeste 23 Sur 0 -- -- 55
2019-03-21 13:00:00 10.4 8 Oeste 23 Noroeste 0 -- -- 59
2019-03-21 12:00:00 9.9 4 Sudoeste 16 Noroeste 0 -- -- 64
2019-03-21 11:00:00 7.5 8 Noroeste 13 Noroeste 0 -- -- 78
2019-03-21 10:00:00 5.6 3 Noroeste 5 Noroeste 0 -- -- 80
2019-03-21 09:00:00 3.6 0 Calma 4 Sudeste 0 -- -- 88
2019-03-21 08:00:00 2.2 3 Sudeste 6 Este 0 -- -- 87
2019-03-21 07:00:00 2.4 3 Sudeste 8 Este 0 -- -- 86
2019-03-21 06:00:00 3.1 2 Este 5 Norte 0 -- -- 85
2019-03-21 05:00:00 3.7 2 Nordeste 9 Nordeste 0 -- -- 83
2019-03-21 04:00:00 4.5 3 Noroeste 13 Sur 0 -- -- 79
2019-03-21 03:00:00 5.1 7 Sudoeste 26 Sur 0 -- -- 76
2019-03-21 02:00:00 4.3 10 Sudoeste 29 Sudoeste 0 -- -- 76
2019-03-21 01:00:00 4.5 6 Sur 29 Este 0 -- -- 67
2019-03-21 00:00:00 4.5 11 Este 30 Sudeste 0 -- -- 73
2019-03-20 23:00:00 4.9 7 Este 24 Sudeste 0 -- -- 64
2019-03-20 22:00:00 2.9 3 Este 10 Este 0 -- -- 75
2019-03-20 21:00:00 2.6 2 Este 6 Nordeste 0 -- -- 77
2019-03-20 20:00:00 3.7 2 Nordeste 19 Sudeste 0 -- -- 64
2019-03-20 19:00:00 5.7 5 Sudeste 21 Sudeste 0 -- -- 65
2019-03-20 18:00:00 8.7 6 Oeste 24 Nordeste 0 -- -- 56
2019-03-20 17:00:00 9.5 7 Norte 21 Noroeste 0 -- -- 58
2019-03-20 16:00:00 9.7 9 Norte 24 Norte 0 -- -- 62
2019-03-20 15:00:00 10.1 7 Oeste 19 Norte 0 -- -- 62
2019-03-20 14:00:00 8.1 14 Noroeste 25 Noroeste 0 -- -- 66
2019-03-20 13:00:00 8.1 8 Noroeste 21 Noroeste 0 -- -- 69
2019-03-20 12:00:00 6.6 9 Noroeste 24 Noroeste 0 -- -- 73
2019-03-20 11:00:00 5.5 8 Noroeste 14 Noroeste 0 -- -- 94
2019-03-20 10:00:00 4.6 3 Noroeste 9 Noroeste 0 -- -- 97
2019-03-20 09:00:00 4 0 Calma 3 Sudoeste 0 -- -- 98
2019-03-20 08:00:00 3.5 3 Norte 12 Noroeste 0 -- -- 99
2019-03-20 07:00:00 3.9 0 Calma 4 Nordeste 0 -- -- 95
2019-03-20 06:00:00 4.2 0 Calma 10 Norte 0 -- -- 93
2019-03-20 05:00:00 4.1 6 Noroeste 14 Noroeste 0.6 -- -- 98
2019-03-20 04:00:00 4 0 Calma 3 Noroeste 0.8 -- -- 100
2019-03-20 03:00:00 4 3 Norte 8 Noroeste 0.4 -- -- 99
2019-03-20 02:00:00 4.2 0 Calma 5 Este 0 -- -- 97
2019-03-20 01:00:00 4.3 0 Calma 6 Noroeste 0 -- -- 95
2019-03-20 00:00:00 4.3 2 Nordeste 16 Norte 0.2 -- -- 99
2019-03-19 23:00:00 4.6 7 Noroeste 14 Noroeste 1 -- -- 100
2019-03-19 22:00:00 4.7 4 Norte 6 Norte 0.6 -- -- 100
2019-03-19 21:00:00 4.5 3 Norte 9 Noroeste 1 -- -- 100
2019-03-19 20:00:00 4.7 5 Norte 8 Norte 0.2 -- -- 97
2019-03-19 19:00:00 4.8 3 Norte 13 Noroeste 0.2 -- -- 97
2019-03-19 18:00:00 5.1 9 Noroeste 18 Noroeste 1.6 -- -- 96
2019-03-19 17:00:00 5.6 9 Noroeste 21 Noroeste 0 -- -- 99
2019-03-19 16:00:00 6 9 Noroeste 21 Noroeste 1.4 -- -- 95
2019-03-19 15:00:00 6.1 10 Noroeste 24 Noroeste 1 -- -- 96
2019-03-19 14:00:00 5.8 13 Noroeste 27 Noroeste 0.6 -- -- 98
2019-03-19 13:00:00 6.3 10 Noroeste 23 Noroeste 0.2 -- -- 94
2019-03-19 12:00:00 6 13 Noroeste 29 Noroeste 0.2 -- -- 96
2019-03-19 11:00:00 5.4 13 Noroeste 28 Noroeste 1.8 -- -- 100
2019-03-19 10:00:00 5 17 Noroeste 28 Noroeste 1.6 -- -- 100
2019-03-19 09:00:00 4.8 15 Noroeste 30 Norte 2.4 -- -- 100
2019-03-19 08:00:00 4.5 11 Norte 24 Norte 3.4 -- -- 100
2019-03-19 07:00:00 4.2 10 Noroeste 21 Norte 1 -- -- 100
2019-03-19 06:00:00 3.9 9 Noroeste 22 Noroeste 2.2 -- -- 100
2019-03-19 05:00:00 3.8 8 Noroeste 20 Noroeste 2.6 -- -- 100
2019-03-19 04:00:00 3.7 6 Noroeste 23 Norte 1.2 -- -- 100
2019-03-19 03:00:00 3.7 12 Noroeste 32 Noroeste 1.2 -- -- 99
2019-03-19 02:00:00 3.6 6 Noroeste 26 Noroeste 2.2 -- -- 98
2019-03-19 01:00:00 4 9 Noroeste 21 Noroeste 1.2 -- -- 97
2019-03-19 00:00:00 4.1 4 Norte 22 Norte 0.4 -- -- 96